Time;durP1;ratioP1;P1;durP2;ratioP2;P2;SDS_P1;SDS_P2;PMS_P1;PMS_P2;Temp;Humidity;BMP_temperature;BMP_pressure;BME280_temperature;BME280_humidity;BME280_pressure;Samples;Min_cycle;Max_cycle;Signal;HPM_P1;HPM_P2
2023/03/29 00:01:31;;;;;;;3.00;1.80;;;;;;;4.34;79.60;99566.64;106752;1251;60302;-91
2023/03/29 00:04:03;;;;;;;2.40;2.20;;;;;;;4.27;79.56;99581.83;106822;1251;60353;-91
2023/03/29 00:06:31;;;;;;;3.10;2.10;;;;;;;4.24;79.59;99579.73;106542;1251;73997;-91
2023/03/29 00:09:00;;;;;;;2.40;1.90;;;;;;;4.18;79.44;99587.82;106764;1251;65313;-89
2023/03/29 00:11:31;;;;;;;2.40;2.10;;;;;;;4.13;79.60;99594.28;106655;1253;73394;-89
2023/03/29 00:13:58;;;;;;;6.40;2.90;;;;;;;4.12;79.63;99590.37;106612;1253;61233;-90
2023/03/29 00:16:25;;;;;;;3.50;2.80;;;;;;;4.10;79.50;99586.34;106554;1253;60696;-85
2023/03/29 00:18:52;;;;;;;2.80;2.00;;;;;;;4.09;79.93;99582.91;106407;1253;73197;-87
2023/03/29 00:21:20;;;;;;;3.20;2.60;;;;;;;4.09;80.02;99588.65;106318;1253;64701;-89
2023/03/29 00:23:46;;;;;;;3.00;2.40;;;;;;;4.07;80.02;99592.52;106364;1253;72659;-89
2023/03/29 00:26:13;;;;;;;4.00;2.30;;;;;;;4.06;79.90;99592.60;106364;1251;62595;-89
2023/03/29 00:28:45;;;;;;;5.30;2.00;;;;;;;4.08;79.95;99595.95;106628;1253;61188;-87
2023/03/29 00:31:14;;;;;;;2.60;2.10;;;;;;;4.11;79.83;99602.05;106479;1253;73265;-87
2023/03/29 00:33:41;;;;;;;7.10;3.10;;;;;;;4.13;79.66;99602.45;106376;1253;64957;-89
2023/03/29 00:36:11;;;;;;;6.10;3.90;;;;;;;4.12;79.81;99603.86;106278;1253;73573;-89
2023/03/29 00:38:40;;;;;;;8.50;5.90;;;;;;;4.12;79.68;99599.54;106287;1255;60601;-88
2023/03/29 00:41:07;;;;;;;5.20;3.60;;;;;;;4.11;79.68;99597.69;106361;1252;61266;-88
2023/03/29 00:44:28;;;;;;;4.20;3.20;;;;;;;4.08;79.37;99600.94;108143;1251;73964;-86
2023/03/29 00:46:55;;;;;;;3.90;2.80;;;;;;;4.04;79.62;99604.42;107338;1258;63721;-86
2023/03/29 00:49:22;;;;;;;8.90;2.60;;;;;;;4.05;79.87;99612.55;107038;1258;72757;-87
2023/03/29 00:51:49;;;;;;;5.00;2.50;;;;;;;4.04;79.96;99611.56;106191;1260;62271;-88
2023/03/29 00:54:18;;;;;;;5.30;2.30;;;;;;;4.04;80.24;99614.15;107525;1258;60728;-88
2023/03/29 00:56:46;;;;;;;2.60;2.40;;;;;;;4.03;80.36;99610.38;106986;1260;72949;-88
2023/03/29 00:59:18;;;;;;;3.60;3.20;;;;;;;4.03;80.74;99612.27;106490;1262;63807;-89
2023/03/29 01:02:01;;;;;;;2.90;2.60;;;;;;;4.05;80.96;99614.62;106589;1258;73521;-88
2023/03/29 01:04:46;;;;;;;4.00;3.20;;;;;;;4.07;80.56;99620.77;107821;1262;60126;-87
2023/03/29 01:07:17;;;;;;;3.70;2.90;;;;;;;4.07;80.56;99630.41;106121;1262;61958;-86
2023/03/29 01:09:50;;;;;;;5.60;4.30;;;;;;;4.04;80.48;99636.08;105912;1262;73635;-88
2023/03/29 01:12:20;;;;;;;5.90;4.30;;;;;;;4.04;80.43;99634.38;105576;1260;64804;-86
2023/03/29 01:14:50;;;;;;;6.60;4.00;;;;;;;3.99;79.98;99639.13;105609;1265;72613;-89
2023/03/29 01:17:20;;;;;;;8.40;3.70;;;;;;;3.96;80.21;99645.28;105866;1262;62347;-87
2023/03/29 01:19:52;;;;;;;5.60;3.40;;;;;;;3.95;79.82;99643.96;105629;1259;61098;-87
2023/03/29 01:22:32;;;;;;;4.10;3.20;;;;;;;3.93;79.88;99647.16;105917;1260;73137;-87
2023/03/29 01:25:02;;;;;;;7.10;4.20;;;;;;;3.93;79.72;99654.77;106355;1251;64820;-88
2023/03/29 01:28:02;;;;;;;3.70;2.90;;;;;;;3.92;79.84;99656.36;106144;1251;73638;-86
2023/03/29 01:30:36;;;;;;;3.70;3.30;;;;;;;3.93;79.69;99660.33;106544;1257;60589;-86
2023/03/29 01:33:11;;;;;;;3.80;3.30;;;;;;;3.94;79.29;99664.79;107205;1255;60128;-85
2023/03/29 01:35:44;;;;;;;4.10;3.20;;;;;;;3.90;79.14;99665.63;106970;1253;73042;-87
2023/03/29 01:38:18;;;;;;;5.60;3.10;;;;;;;3.85;78.98;99671.40;106539;1251;63731;-91
2023/03/29 01:40:45;;;;;;;7.00;3.80;;;;;;;3.82;78.76;99675.19;106222;1252;73749;-88
2023/03/29 01:43:18;;;;;;;4.40;3.40;;;;;;;3.81;78.75;99681.64;106086;1251;61967;-89
2023/03/29 01:46:14;;;;;;;5.80;3.40;;;;;;;3.79;78.89;99691.41;106181;1253;61033;-86
2023/03/29 01:48:53;;;;;;;2.80;2.50;;;;;;;3.77;78.80;99696.00;106161;1251;74031;-88
2023/03/29 01:51:45;;;;;;;3.70;3.30;;;;;;;3.77;78.79;99698.80;106865;1251;63784;-88
2023/03/29 01:54:19;;;;;;;4.50;4.00;;;;;;;3.79;79.08;99697.66;107150;1251;72584;-90
2023/03/29 01:56:47;;;;;;;4.60;3.70;;;;;;;3.81;79.27;99695.66;106789;1253;60587;-90
2023/03/29 01:59:17;;;;;;;3.80;3.50;;;;;;;3.85;79.08;99701.31;106132;1251;60342;-90
2023/03/29 02:01:48;;;;;;;4.60;3.40;;;;;;;3.90;79.07;99706.63;106059;1251;74099;-87
2023/03/29 02:04:20;;;;;;;5.30;4.60;;;;;;;3.93;79.11;99707.17;106085;1253;63902;-85
2023/03/29 02:06:53;;;;;;;5.70;5.00;;;;;;;3.91;79.01;99711.59;106139;1256;73596;-90
2023/03/29 02:09:20;;;;;;;7.50;5.00;;;;;;;3.87;79.18;99713.19;106112;1253;62176;-86
2023/03/29 02:11:47;;;;;;;7.40;5.50;;;;;;;3.80;79.26;99717.30;106050;1254;61357;-85
2023/03/29 02:14:17;;;;;;;6.20;5.60;;;;;;;3.68;79.90;99721.15;105960;1258;73662;-83
2023/03/29 02:16:45;;;;;;;8.80;5.90;;;;;;;3.61;80.67;99725.10;105946;1255;64818;-86
2023/03/29 02:19:12;;;;;;;7.40;5.70;;;;;;;3.58;81.44;99727.98;106203;1255;73179;-88
2023/03/29 02:21:50;;;;;;;5.50;4.70;;;;;;;3.57;81.62;99732.39;106332;1252;60705;-87
2023/03/29 02:24:19;;;;;;;7.00;4.90;;;;;;;3.58;82.10;99736.47;107739;1253;60191;-88
2023/03/29 02:26:55;;;;;;;6.10;4.40;;;;;;;3.59;82.30;99735.54;106394;1253;73043;-88
2023/03/29 02:29:23;;;;;;;6.00;4.80;;;;;;;3.59;82.16;99731.26;105980;1253;63684;-90
2023/03/29 02:31:57;;;;;;;6.90;5.10;;;;;;;3.54;82.32;99729.73;106088;1257;73624;-89
2023/03/29 02:34:38;;;;;;;8.70;6.20;;;;;;;3.48;82.11;99736.54;106612;1253;59692;-89
2023/03/29 02:37:09;;;;;;;17.90;8.20;;;;;;;3.37;82.20;99741.73;106337;1258;60559;-88
2023/03/29 02:39:37;;;;;;;23.10;7.80;;;;;;;3.25;82.24;99740.00;106134;1258;72949;-88
2023/03/29 02:42:04;;;;;;;17.80;8.70;;;;;;;3.16;82.55;99747.16;105911;1257;64698;-88
2023/03/29 02:44:35;;;;;;;16.80;8.10;;;;;;;3.12;82.93;99747.14;105871;1258;73393;-88
2023/03/29 02:47:14;;;;;;;10.20;6.80;;;;;;;3.11;83.06;99745.45;106220;1253;62289;-88
2023/03/29 02:49:42;;;;;;;10.50;5.60;;;;;;;3.09;83.14;99747.61;106238;1258;61727;-88
2023/03/29 02:52:18;;;;;;;8.80;5.40;;;;;;;3.06;83.41;99748.61;106252;1258;72914;-84
2023/03/29 02:54:45;;;;;;;6.30;4.40;;;;;;;3.05;83.63;99749.35;108292;1253;64690;-84
2023/03/29 02:57:20;;;;;;;10.00;5.20;;;;;;;3.09;83.70;99749.48;108036;1257;71495;-89
2023/03/29 02:59:48;;;;;;;8.80;5.80;;;;;;;3.16;83.98;99750.25;106793;1257;60147;-89
2023/03/29 03:02:16;;;;;;;7.50;5.50;;;;;;;3.22;84.22;99749.27;105998;1253;61162;-89
2023/03/29 03:04:44;;;;;;;9.10;5.60;;;;;;;3.27;84.09;99754.75;106270;1253;74022;-88
2023/03/29 03:07:12;;;;;;;9.70;6.90;;;;;;;3.27;83.66;99759.05;106499;1253;63817;-87
2023/03/29 03:09:40;;;;;;;6.90;6.20;;;;;;;3.24;83.49;99762.49;106381;1257;72528;-90
2023/03/29 03:12:09;;;;;;;7.30;6.00;;;;;;;3.23;83.23;99769.98;106266;1253;62338;-93
2023/03/29 03:14:37;;;;;;;7.00;6.30;;;;;;;3.15;82.96;99773.27;106205;1253;61136;-90
2023/03/29 03:17:05;;;;;;;10.80;7.40;;;;;;;3.05;83.54;99775.74;105928;1253;75205;-90
2023/03/29 03:19:38;;;;;;;9.50;6.90;;;;;;;3.04;84.16;99779.59;106227;1253;64744;-91
2023/03/29 03:22:06;;;;;;;7.40;6.10;;;;;;;3.06;83.91;99782.96;106229;1257;73447;-92
2023/03/29 03:24:36;;;;;;;6.70;5.70;;;;;;;3.06;84.08;99782.61;107050;1253;62091;-90
2023/03/29 03:27:03;;;;;;;9.70;6.00;;;;;;;3.07;84.01;99776.71;105955;1253;61008;-87
2023/03/29 03:29:31;;;;;;;10.60;7.00;;;;;;;3.04;84.17;99771.14;109218;1253;72833;-89
2023/03/29 03:32:16;;;;;;;9.90;8.00;;;;;;;3.01;84.50;99782.50;108169;1253;63586;-88
2023/03/29 03:35:04;;;;;;;9.00;7.10;;;;;;;3.02;84.93;99800.94;106237;1256;73771;-89
2023/03/29 03:37:31;;;;;;;9.50;7.60;;;;;;;3.07;84.99;99811.41;106234;1257;60757;-90
2023/03/29 03:39:58;;;;;;;10.30;7.40;;;;;;;3.10;84.79;99818.70;106224;1253;61607;-86
2023/03/29 03:42:29;;;;;;;12.10;7.70;;;;;;;3.13;84.45;99814.77;106289;1260;73424;-82
2023/03/29 03:44:57;;;;;;;10.80;7.10;;;;;;;3.18;84.24;99805.08;106364;1257;65717;-89
2023/03/29 03:47:31;;;;;;;10.60;7.80;;;;;;;3.18;84.00;99794.52;106481;1258;74274;-88
2023/03/29 03:50:07;;;;;;;11.10;7.40;;;;;;;3.15;83.60;99792.42;106210;1256;61008;-89
2023/03/29 03:52:35;;;;;;;10.10;7.20;;;;;;;3.06;83.56;99799.69;106166;1253;60428;-87
2023/03/29 03:55:08;;;;;;;11.30;7.80;;;;;;;3.01;83.38;99799.76;106098;1254;74984;-86
2023/03/29 03:57:46;;;;;;;9.40;7.50;;;;;;;2.93;83.71;99798.88;106238;1258;64682;-86
2023/03/29 04:00:18;;;;;;;16.40;9.60;;;;;;;2.93;83.71;99802.69;106149;1257;73472;-86
2023/03/29 04:02:53;;;;;;;14.50;10.70;;;;;;;2.92;83.55;99811.86;106230;1253;60446;-87
2023/03/29 04:05:21;;;;;;;17.90;10.00;;;;;;;2.93;83.80;99819.62;106769;1253;61555;-87
2023/03/29 04:07:49;;;;;;;19.30;12.10;;;;;;;2.92;83.47;99822.22;106122;1257;75522;-89
2023/03/29 04:10:22;;;;;;;16.90;12.10;;;;;;;2.88;83.07;99823.42;106257;1257;65078;-87
2023/03/29 04:13:09;;;;;;;15.80;10.70;;;;;;;2.85;83.12;99823.03;106493;1257;73791;-84
2023/03/29 04:15:55;;;;;;;13.90;9.70;;;;;;;2.83;83.24;99828.28;106243;1253;62313;-87
2023/03/29 04:18:26;;;;;;;10.00;7.30;;;;;;;2.82;83.22;99830.90;106516;1254;61170;-88
2023/03/29 04:20:56;;;;;;;11.20;8.20;;;;;;;2.84;83.34;99834.12;106782;1254;74737;-88
2023/03/29 04:23:24;;;;;;;12.70;9.80;;;;;;;2.86;83.55;99836.80;107484;1253;63935;-84
2023/03/29 04:25:55;;;;;;;14.20;10.60;;;;;;;2.87;83.02;99834.52;107644;1254;73668;-86
2023/03/29 04:28:37;;;;;;;19.40;12.80;;;;;;;2.85;83.32;99837.90;106878;1257;60465;-86
2023/03/29 04:31:32;;;;;;;26.60;14.20;;;;;;;2.86;83.29;99835.91;107196;1258;61145;-89
2023/03/29 04:34:34;;;;;;;21.60;13.00;;;;;;;2.83;83.41;99834.48;107338;1253;73326;-88
2023/03/29 04:37:09;;;;;;;21.80;15.20;;;;;;;2.83;83.46;99842.45;107095;1257;63899;-87
2023/03/29 04:39:36;;;;;;;16.90;12.10;;;;;;;2.86;83.65;99853.05;106038;1260;72721;-90
2023/03/29 04:42:04;;;;;;;17.70;10.70;;;;;;;2.87;83.54;99858.30;108683;1253;61164;-87
2023/03/29 04:44:35;;;;;;;16.30;10.10;;;;;;;2.86;83.23;99862.87;108523;1254;60899;-88
2023/03/29 04:47:04;;;;;;;9.50;7.70;;;;;;;2.84;83.64;99870.19;107681;1256;73622;-89
2023/03/29 04:49:53;;;;;;;13.90;7.50;;;;;;;2.82;83.61;99864.42;106329;1257;64863;-90
2023/03/29 04:52:31;;;;;;;8.40;7.30;;;;;;;2.75;84.07;99861.94;106231;1258;73897;-90
2023/03/29 04:55:05;;;;;;;11.30;7.10;;;;;;;2.70;84.29;99868.50;106314;1259;60422;-89
2023/03/29 04:58:16;;;;;;;9.80;8.10;;;;;;;2.63;84.57;99876.38;106594;1253;61238;-89
2023/03/29 05:00:44;;;;;;;10.70;9.10;;;;;;;2.56;85.27;99875.95;106309;1254;74835;-89
2023/03/29 05:03:21;;;;;;;10.00;7.00;;;;;;;2.56;85.78;99880.30;106103;1256;64800;-88
2023/03/29 05:05:53;;;;;;;10.90;7.80;;;;;;;2.54;86.02;99885.20;106317;1255;73651;-88
2023/03/29 05:08:20;;;;;;;11.30;7.80;;;;;;;2.54;86.29;99889.67;105955;1254;62318;-85
2023/03/29 05:11:14;;;;;;;12.60;8.40;;;;;;;2.57;86.87;99896.65;105974;1253;61304;-87
2023/03/29 05:13:44;;;;;;;8.40;7.00;;;;;;;2.62;86.89;99893.66;105827;1260;73886;-87
2023/03/29 05:16:14;;;;;;;8.80;6.70;;;;;;;2.70;86.81;99893.17;106831;1255;63841;-87
2023/03/29 05:18:42;;;;;;;10.60;6.90;;;;;;;2.72;86.54;99897.41;106676;1257;74342;-86
2023/03/29 05:21:09;;;;;;;7.10;5.70;;;;;;;2.71;86.47;99899.35;106060;1257;62149;-86
2023/03/29 05:23:38;;;;;;;7.40;4.70;;;;;;;2.67;86.45;99901.08;105981;1257;61562;-87
2023/03/29 05:26:31;;;;;;;3.90;3.60;;;;;;;2.60;87.09;99907.21;106418;1257;74815;-89
2023/03/29 05:29:01;;;;;;;2.70;2.50;;;;;;;2.60;87.05;99914.29;106123;1259;64651;-88
2023/03/29 05:31:28;;;;;;;2.90;2.60;;;;;;;2.56;86.85;99924.98;106217;1258;73632;-86
2023/03/29 05:33:55;;;;;;;3.10;2.30;;;;;;;2.54;86.93;99924.34;105964;1255;60651;-87
2023/03/29 05:36:23;;;;;;;1.60;1.50;;;;;;;2.52;86.76;99923.25;105881;1253;61272;-85
2023/03/29 05:38:51;;;;;;;1.80;1.70;;;;;;;2.41;86.53;99931.40;105819;1258;74990;-86
2023/03/29 05:41:23;;;;;;;1.90;1.60;;;;;;;2.30;86.55;99934.73;106024;1255;65174;-88
2023/03/29 05:44:11;;;;;;;0.90;0.90;;;;;;;2.18;86.69;99942.43;106063;1254;73932;-86
2023/03/29 05:46:41;;;;;;;1.50;1.10;;;;;;;2.05;87.09;99949.61;107517;1252;62351;-87
2023/03/29 05:49:11;;;;;;;1.20;0.70;;;;;;;1.95;87.53;99952.20;107928;1253;60471;-86
2023/03/29 05:52:03;;;;;;;1.40;1.20;;;;;;;1.88;87.80;99952.46;107690;1260;75134;-87
2023/03/29 05:54:48;;;;;;;2.10;1.30;;;;;;;1.87;88.05;99960.60;108656;1255;64805;-87
2023/03/29 05:57:37;;;;;;;1.70;1.60;;;;;;;1.82;88.45;99965.60;108991;1247;71402;31
2023/03/29 06:00:33;;;;;;;3.10;1.20;;;;;;;1.82;88.88;99970.23;108837;1250;60540;-94
2023/03/29 06:06:30;;;;;;;1.30;1.20;;;;;;;1.84;88.61;99989.45;108027;1256;72614;-94
2023/03/29 06:09:16;;;;;;;1.80;1.20;;;;;;;1.80;88.67;99998.05;109161;1252;63832;-95
2023/03/29 06:12:58;;;;;;;1.50;1.30;;;;;;;1.78;88.85;100004.48;108943;1260;74083;-94
2023/03/29 06:16:43;;;;;;;1.40;0.90;;;;;;;1.84;89.29;100018.76;108966;1253;61845;-93
2023/03/29 06:19:35;;;;;;;1.30;1.20;;;;;;;1.88;89.48;100025.52;108732;1254;60405;-94
2023/03/29 06:26:40;;;;;;;1.30;1.30;;;;;;;2.05;89.28;100014.93;107735;1272;67405;-89
2023/03/29 06:29:09;;;;;;;2.30;1.20;;;;;;;2.07;89.14;100010.55;106316;1268;74311;-90
2023/03/29 06:31:44;;;;;;;2.00;1.70;;;;;;;2.05;88.76;100009.77;106626;1267;60648;-90
2023/03/29 06:36:08;;;;;;;3.00;1.30;;;;;;;2.01;88.44;100016.47;107468;1258;60851;-87
2023/03/29 06:39:13;;;;;;;1.70;1.30;;;;;;;2.05;88.47;100014.61;108323;1265;74677;-93
2023/03/29 06:47:29;;;;;;;1.10;1.10;;;;;;;2.20;88.46;100025.30;108505;1263;70442;-94
2023/03/29 06:50:26;;;;;;;1.80;1.50;;;;;;;2.28;88.19;100023.81;108233;1265;60406;-93
2023/03/29 06:53:22;;;;;;;2.50;1.30;;;;;;;2.40;87.57;100028.20;108300;1263;59238;-92
2023/03/29 07:00:34;;;;;;;1.40;1.20;;;;;;;2.50;87.13;100035.09;107143;1265;62514;-94
2023/03/29 07:12:22;;;;;;;1.80;1.70;;;;;;;2.76;86.31;100059.34;108096;1275;59155;-95
2023/03/29 07:15:47;;;;;;;1.60;1.50;;;;;;;2.79;86.14;100064.92;107576;1273;72442;-94
2023/03/29 07:28:42;;;;;;;2.10;2.00;;;;;;;2.92;85.49;100090.34;108361;1259;59328;-90
2023/03/29 07:32:03;;;;;;;2.10;1.90;;;;;;;2.90;85.28;100101.62;107703;1261;73282;-92
2023/03/29 07:38:02;;;;;;;1.60;1.40;;;;;;;2.98;84.53;100106.87;108547;1261;71267;-91
2023/03/29 07:41:34;;;;;;;1.80;1.50;;;;;;;2.97;84.28;100111.39;108538;1267;63050;-94
2023/03/29 07:44:29;;;;;;;1.60;1.50;;;;;;;2.98;84.18;100114.48;108069;1270;60497;-89
2023/03/29 07:47:29;;;;;;;1.50;1.40;;;;;;;2.97;83.65;100116.23;107603;1270;72539;-94
2023/03/29 07:50:24;;;;;;;1.70;1.20;;;;;;;2.91;83.25;100115.74;107923;1283;63633;-92
2023/03/29 07:53:01;;;;;;;1.50;1.40;;;;;;;2.90;83.39;100119.42;107571;1275;70926;-92
2023/03/29 07:56:02;;;;;;;1.50;1.40;;;;;;;2.92;83.65;100123.68;108001;1275;61114;-87
2023/03/29 07:59:09;;;;;;;5.40;2.60;;;;;;;2.92;82.89;100118.99;107694;1276;60217;-92
2023/03/29 08:01:47;;;;;;;2.70;2.50;;;;;;;2.87;82.75;100118.65;107615;1275;73196;-92
2023/03/29 08:05:11;;;;;;;1.80;1.30;;;;;;;2.87;82.82;100117.30;108576;1260;62896;-92
2023/03/29 08:08:30;;;;;;;1.80;1.60;;;;;;;2.93;82.47;100121.22;108534;1260;74265;-92
2023/03/29 08:23:30;;;;;;;1.60;1.50;;;;;;;3.33;79.71;100121.95;108534;1260;987106;-90
2023/03/29 08:26:19;;;;;;;1.10;0.80;;;;;;;3.41;78.95;100120.98;107588;1244;4741861;-85
2023/03/29 08:28:51;;;;;;;1.20;1.10;;;;;;;3.37;78.69;100118.89;111199;1238;61237;-93
2023/03/29 08:31:49;;;;;;;0.90;0.60;;;;;;;3.30;78.01;100125.34;110542;1236;71595;-91
2023/03/29 08:34:19;;;;;;;3.80;2.60;;;;;;;3.23;77.98;100120.96;108896;1241;64940;-87
2023/03/29 08:37:15;;;;;;;1.50;1.40;;;;;;;3.14;77.24;100121.28;108626;1237;73589;-86
2023/03/29 08:39:47;;;;;;;2.20;1.30;;;;;;;3.03;77.94;100125.31;109821;1240;59197;-87
2023/03/29 08:42:57;;;;;;;1.50;1.40;;;;;;;2.99;78.33;100126.16;109700;1242;61991;-88
2023/03/29 08:45:34;;;;;;;1.50;1.20;;;;;;;2.98;77.94;100123.80;109582;1236;72395;-90
2023/03/29 08:48:29;;;;;;;1.10;1.00;;;;;;;2.96;78.19;100127.33;109752;1234;64634;-89
2023/03/29 08:51:29;;;;;;;0.80;0.80;;;;;;;2.90;78.03;100124.59;110342;1234;72656;-89
2023/03/29 08:54:25;;;;;;;0.80;0.70;;;;;;;2.89;78.03;100130.66;109500;1237;60187;-91
2023/03/29 08:57:17;;;;;;;1.50;1.10;;;;;;;2.94;78.32;100126.89;109889;1237;60120;-91
2023/03/29 08:59:51;;;;;;;1.10;0.90;;;;;;;3.00;78.24;100131.48;109963;1238;72188;-86
2023/03/29 09:02:24;;;;;;;2.30;0.90;;;;;;;3.06;77.89;100127.64;109313;1242;64305;-90
2023/03/29 09:05:19;;;;;;;1.40;0.90;;;;;;;3.08;77.63;100139.11;109639;1241;72282;-91
2023/03/29 09:07:57;;;;;;;1.50;1.30;;;;;;;3.05;76.79;100140.80;109990;1244;59719;-90
2023/03/29 09:10:35;;;;;;;1.30;1.20;;;;;;;3.00;76.71;100139.09;109692;1244;59635;-90
2023/03/29 09:13:30;;;;;;;1.20;1.10;;;;;;;3.00;76.90;100143.23;109122;1241;73270;-88
2023/03/29 09:16:23;;;;;;;1.40;1.30;;;;;;;2.99;77.06;100148.09;108569;1243;63737;-90
2023/03/29 09:19:05;;;;;;;2.20;1.20;;;;;;;3.03;77.21;100151.41;109277;1239;73574;-90
2023/03/29 09:21:48;;;;;;;1.10;1.00;;;;;;;3.07;77.15;100155.92;109587;1240;62258;-87
2023/03/29 09:25:08;;;;;;;2.50;1.20;;;;;;;3.07;76.46;100164.38;109399;1240;60047;-90
2023/03/29 09:27:44;;;;;;;0.90;0.70;;;;;;;3.06;76.14;100167.52;109494;1243;72692;-89
2023/03/29 09:30:41;;;;;;;1.10;0.90;;;;;;;3.08;76.41;100173.34;110556;1238;64829;-91
2023/03/29 09:33:55;;;;;;;1.40;0.90;;;;;;;3.14;76.53;100178.46;110388;1235;72688;-92
2023/03/29 09:37:02;;;;;;;1.40;1.10;;;;;;;3.20;76.58;100183.77;110612;1235;59412;-91
2023/03/29 09:39:35;;;;;;;1.50;1.20;;;;;;;3.16;76.47;100183.05;109702;1235;60278;-89
2023/03/29 09:42:08;;;;;;;1.60;1.30;;;;;;;3.19;76.27;100185.20;109450;1236;73827;-91
2023/03/29 09:44:44;;;;;;;1.90;1.30;;;;;;;3.18;76.36;100186.96;108977;1241;63784;-90
2023/03/29 09:47:26;;;;;;;1.60;1.50;;;;;;;3.18;76.19;100195.95;109561;1239;73510;-88
2023/03/29 09:49:56;;;;;;;1.60;1.50;;;;;;;3.17;75.56;100201.85;109506;1241;60919;-87
2023/03/29 09:52:25;;;;;;;6.20;2.90;;;;;;;3.17;75.84;100208.92;109685;1235;61356;-89
2023/03/29 09:55:05;;;;;;;2.60;2.10;;;;;;;3.20;75.50;100213.84;109987;1235;72981;-89
2023/03/29 09:57:57;;;;;;;1.80;1.30;;;;;;;3.19;75.33;100217.13;111366;1235;63088;-89
2023/03/29 10:00:40;;;;;;;0.80;0.80;;;;;;;3.20;75.23;100224.38;110043;1235;72631;-88
2023/03/29 10:03:30;;;;;;;1.60;1.50;;;;;;;3.21;74.94;100229.17;110096;1235;59866;-87
2023/03/29 10:06:08;;;;;;;2.40;1.20;;;;;;;3.21;75.32;100234.89;111073;1228;60131;-90
2023/03/29 10:08:43;;;;;;;1.90;1.70;;;;;;;3.20;75.65;100242.67;111016;1228;74098;-89
2023/03/29 10:11:22;;;;;;;1.50;1.40;;;;;;;3.21;75.83;100245.09;111139;1229;63593;-86
2023/03/29 10:14:05;;;;;;;2.70;1.80;;;;;;;3.20;76.22;100253.02;110308;1228;72507;-88
2023/03/29 10:16:40;;;;;;;2.80;2.10;;;;;;;3.19;76.46;100254.95;110616;1228;59600;-87
2023/03/29 10:19:42;;;;;;;4.20;2.60;;;;;;;3.18;76.61;100262.10;110571;1229;61621;-88
2023/03/29 10:22:24;;;;;;;2.50;1.90;;;;;;;3.18;76.59;100265.04;110388;1233;73377;-87
2023/03/29 10:24:57;;;;;;;1.70;1.60;;;;;;;3.14;77.12;100272.92;111385;1234;65188;-85
2023/03/29 10:27:28;;;;;;;2.20;1.90;;;;;;;3.18;77.97;100277.81;110119;1230;73302;-84
2023/03/29 10:30:06;;;;;;;4.70;1.60;;;;;;;3.20;78.28;100279.46;110862;1228;62395;-89
2023/03/29 10:32:37;;;;;;;4.80;2.20;;;;;;;3.19;78.34;100279.84;111064;1232;61500;-89
2023/03/29 10:37:17;;;;;;;2.70;2.50;;;;;;;3.22;78.30;100281.98;105970;1286;613120;-88
2023/03/29 10:40:46;;;;;;;4.10;2.50;;;;;;;3.10;78.90;100293.61;107760;1260;59561;-89
2023/03/29 10:47:39;;;;;;;3.30;2.80;;;;;;;3.03;79.52;100303.52;108698;1260;71067;-90
2023/03/29 10:50:21;;;;;;;1.90;1.80;;;;;;;3.04;79.86;100312.82;108395;1257;1182026;-88
2023/03/29 10:53:00;;;;;;;3.40;2.10;;;;;;;3.06;79.79;100313.27;108003;1257;73677;-90
2023/03/29 10:59:10;;;;;;;3.40;2.30;;;;;;;3.19;80.04;100321.12;108805;1257;60401;-90
2023/03/29 11:08:56;;;;;;;3.10;2.60;;;;;;;2.94;80.64;100342.70;108196;1260;72704;-90
2023/03/29 11:14:24;;;;;;;3.40;2.90;;;;;;;2.84;80.79;100345.45;104176;1291;616521;-89
2023/03/29 11:17:15;;;;;;;2.50;2.30;;;;;;;2.77;80.88;100349.45;106517;1267;61690;-88
2023/03/29 11:20:33;;;;;;;3.00;2.20;;;;;;;2.70;80.46;100349.50;106929;1257;60060;-90
2023/03/29 11:23:36;;;;;;;3.40;2.30;;;;;;;2.64;81.48;100346.06;106968;1258;71305;-88
2023/03/29 11:26:30;;;;;;;4.00;3.30;;;;;;;2.64;81.69;100346.58;103817;1263;3907861;-92
2023/03/29 11:29:16;;;;;;;4.50;3.90;;;;;;;2.63;82.07;100350.42;106484;1264;71832;-87
2023/03/29 11:32:14;;;;;;;4.30;3.90;;;;;;;2.64;82.11;100351.09;107636;1263;59366;-86
2023/03/29 11:39:38;;;;;;;4.00;3.70;;;;;;;2.56;81.37;100360.64;107306;1260;72208;-87
2023/03/29 11:42:16;;;;;;;3.10;2.80;;;;;;;2.47;81.51;100365.05;106386;1260;64512;-86
2023/03/29 11:44:45;;;;;;;3.40;3.00;;;;;;;2.42;81.30;100368.83;108185;1260;73493;-87
2023/03/29 11:47:35;;;;;;;3.10;2.90;;;;;;;2.36;81.57;100367.82;106832;1260;62143;-89
2023/03/29 11:50:05;;;;;;;2.00;1.90;;;;;;;2.35;81.73;100370.25;107493;1256;60169;-88
2023/03/29 11:52:36;;;;;;;3.50;3.20;;;;;;;2.36;81.64;100371.78;107827;1257;73681;-87
2023/03/29 11:55:07;;;;;;;3.50;3.10;;;;;;;2.37;81.61;100376.94;107320;1256;63685;-86
2023/03/29 11:57:41;;;;;;;8.20;5.70;;;;;;;2.35;81.75;100380.46;106971;1257;73620;-87
2023/03/29 12:00:37;;;;;;;4.00;3.70;;;;;;;2.34;81.83;100379.98;107428;1256;59771;-87
2023/03/29 12:03:13;;;;;;;5.20;4.60;;;;;;;2.32;81.95;100390.02;106223;1256;59996;-86
2023/03/29 12:05:51;;;;;;;5.60;4.20;;;;;;;2.28;81.69;100388.91;107146;1257;73876;-86
2023/03/29 12:08:24;;;;;;;4.50;4.10;;;;;;;2.25;81.86;100395.39;108341;1260;64676;-88
2023/03/29 12:11:23;;;;;;;5.10;4.10;;;;;;;2.24;81.99;100394.20;108668;1256;72761;-93
2023/03/29 12:13:57;;;;;;;4.00;3.60;;;;;;;2.28;82.07;100398.23;107458;1256;60365;-89
2023/03/29 12:16:38;;;;;;;3.90;3.60;;;;;;;2.30;81.68;100401.29;107656;1256;60312;-88
2023/03/29 12:19:19;;;;;;;6.30;4.40;;;;;;;2.32;81.85;100404.51;106852;1257;73162;-88
2023/03/29 12:21:49;;;;;;;4.40;4.10;;;;;;;2.35;81.81;100411.33;106646;1256;63196;-88
2023/03/29 12:24:18;;;;;;;5.40;4.90;;;;;;;2.38;81.61;100415.89;107022;1261;71569;-88
2023/03/29 12:26:58;;;;;;;5.00;4.50;;;;;;;2.43;81.60;100417.99;106826;1263;59657;-86
2023/03/29 12:29:35;;;;;;;5.80;5.30;;;;;;;2.48;81.55;100417.84;107585;1257;61323;-91
2023/03/29 12:33:01;;;;;;;5.10;4.60;;;;;;;2.48;81.32;100416.61;107956;1257;73511;-90
2023/03/29 12:35:54;;;;;;;5.10;4.60;;;;;;;2.44;81.05;100422.27;107843;1265;64148;-90
2023/03/29 12:38:59;;;;;;;4.10;3.80;;;;;;;2.40;80.77;100421.17;106638;1265;73626;-88
2023/03/29 12:41:52;;;;;;;4.20;3.90;;;;;;;2.35;81.12;100423.24;106536;1267;61117;-90
2023/03/29 12:44:49;;;;;;;6.00;4.60;;;;;;;2.33;81.34;100426.89;106676;1267;60359;-89
2023/03/29 12:48:03;;;;;;;7.30;5.60;;;;;;;2.31;81.43;100421.44;107682;1267;73647;-90
2023/03/29 12:51:22;;;;;;;6.60;5.90;;;;;;;2.36;81.78;100428.73;107993;1267;63288;-89
2023/03/29 12:53:53;;;;;;;6.90;6.20;;;;;;;2.38;81.66;100426.08;107112;1266;74015;-87
2023/03/29 12:56:22;;;;;;;7.50;5.40;;;;;;;2.38;81.24;100422.95;105686;1270;60509;-88
2023/03/29 12:59:31;;;;;;;7.00;6.10;;;;;;;2.35;80.90;100423.56;106132;1267;60483;-88
2023/03/29 13:02:12;;;;;;;6.60;5.50;;;;;;;2.35;80.44;100423.73;105409;1269;73855;-86
2023/03/29 13:04:42;;;;;;;5.40;4.80;;;;;;;2.33;80.17;100429.15;105967;1270;64470;-87
2023/03/29 13:07:22;;;;;;;4.60;4.20;;;;;;;2.35;80.33;100430.29;105681;1267;73642;-87
2023/03/29 13:09:56;;;;;;;5.20;4.50;;;;;;;2.39;80.81;100428.79;106258;1257;60866;-87
2023/03/29 13:12:33;;;;;;;4.90;3.80;;;;;;;2.49;80.69;100427.65;106653;1258;59775;-86
2023/03/29 13:15:17;;;;;;;6.00;5.40;;;;;;;2.58;79.74;100426.87;107695;1257;73043;-88
2023/03/29 13:18:03;;;;;;;6.60;5.90;;;;;;;2.62;79.15;100424.67;107881;1257;63714;-91
2023/03/29 13:21:15;;;;;;;8.40;7.70;;;;;;;2.64;79.34;100425.46;108371;1257;72657;-93
2023/03/29 13:28:40;;;;;;;7.10;6.40;;;;;;;2.72;77.98;100419.38;108589;1260;62600;-93
2023/03/29 13:36:35;;;;;;;7.90;5.80;;;;;;;2.62;78.22;100424.14;106422;1273;64482;-91
2023/03/29 13:39:18;;;;;;;4.70;4.30;;;;;;;2.67;78.34;100425.03;105952;1273;73061;-90
2023/03/29 13:42:27;;;;;;;5.70;5.20;;;;;;;2.72;78.25;100425.08;106557;1273;59682;-91
2023/03/29 13:45:40;;;;;;;5.70;5.10;;;;;;;2.72;77.94;100426.26;106332;1274;61376;-91
2023/03/29 13:48:32;;;;;;;5.70;5.20;;;;;;;2.80;77.31;100438.60;105563;1280;73913;-91
2023/03/29 13:51:18;;;;;;;6.00;5.50;;;;;;;2.81;76.85;100436.54;105143;1282;64852;-92
2023/03/29 13:54:01;;;;;;;6.00;5.50;;;;;;;2.81;77.11;100434.95;105538;1283;72714;-91
2023/03/29 13:57:09;;;;;;;4.50;4.10;;;;;;;2.82;76.90;100442.16;105695;1282;59431;-93
2023/03/29 14:11:34;;;;;;;3.90;3.60;;;;;;;2.68;73.57;100476.08;105002;1285;600226;-91